Stark, New Hampshire
Current Conditions -  °F | °C
As of 12:52 PM on Friday 24 Oct 2014 (Local Time) from KBML Reporting Station
Haze Haze  
Wind Chill: 41°   Ceiling: 1800
Heat Index: 45°   Visibility: 4mi
Dew Point: 43°   Wind: 7mph
Humidity: 93%   Direction: 330°NNW
Pressure: 29.73"   Gusts: NA
Location:  44.6154°N, 71.467°W
Report Text: KBML 241652Z AUTO 33006KT 4SM BR FEW009 BKN018 OVC024 07/06 A2973 RMK AO2 RAB05E39 SLP075 P0001 T00720061
Loading
Personal Weather Stations






























Interactive Weather Map
Tropical Storm Tracking
New forecast layout! Learn more

10-Day Weather Forecast

Advertisements
Track Severe Weather on mobile